CSCL Nagoya — VRDG2 — position and weather

sailwx.info

Track history (hours):
 
Tides and Currents Weather Stations Pressure Air Temp Water Temp Dewpoint Dewpoint Depression Visibility Wind Speed Wind Dir Waves Ship Positions

CSCL Nagoya

Last reported at 2018-Jun-16 19:02 UTC. Time now 2018-Jun-18 05:39 UTC.
Position N 31°07' E 122°16'.

Length 144 m; draft 8.3 m.

Type: Cargo ship. MMSI: 477136700.

Date/timePositionNaut miles runAvg speedWind from/ knotsBaromVisibWave heightAir tempDewpointWater temp
2018-Jun-16 19:02N 31°07' E 122°16'514.0
2018-Jun-16 18:38N 31°10' E 122°11'314.4
2018-Jun-16 18:28N 31°12' E 122°09'713.4
2018-Jun-16 17:56N 31°15' E 122°01'512.1
2018-Jun-16 17:30N 31°16' E 121°55'611.8
2018-Jun-16 16:58N 31°17' E 121°48'5 0.3
2018-Jun-16 01:45N 31°16' E 121°54'312.3
2018-Jun-16 01:28N 31°15' E 121°58'612.3
2018-Jun-16 01:00N 31°14' E 122°04'812.3
2018-Jun-16 00:22N 31°10' E 122°12'512.1
2018-Jun-15 23:59N 31°07' E 122°16'510.2
2018-Jun-15 23:30N 31°06' E 122°22'18 0.7
2018-Jun-14 22:10N 31°03' E 122°42'0 0.0
2018-Jun-14 21:58N 31°03' E 122°42'0 0.0
2018-Jun-14 21:22N 31°03' E 122°42'0 0.0
2018-Jun-14 18:13N 31°04' E 122°42'0 0.0
2018-Jun-14 17:49N 31°04' E 122°42'0 0.0
2018-Jun-14 17:25N 31°04' E 122°42'0 0.0
2018-Jun-14 16:55N 31°04' E 122°42'0 0.1
2018-Jun-14 16:28N 31°04' E 122°42'0 0.0
2018-Jun-13 20:52N 31°03' E 122°42'0 0.0
2018-Jun-13 20:28N 31°03' E 122°42'0 0.1
2018-Jun-13 19:55N 31°04' E 122°42'0 0.0
2018-Jun-13 19:28N 31°04' E 122°42'0 0.0
2018-Jun-13 09:19N 31°03' E 122°42'0 0.1
2018-Jun-13 08:49N 31°03' E 122°42'0 0.0
2018-Jun-13 06:04N 31°03' E 122°42'0 0.0
2018-Jun-13 02:07N 31°04' E 122°42'0 0.2
2018-Jun-13 01:52N 31°04' E 122°42'0 0.1
2018-Jun-13 01:28N 31°04' E 122°42'0 0.1
2018-Jun-13 00:58N 31°04' E 122°42'0 0.0
2018-Jun-13 00:28N 31°04' E 122°42'0 0.0
2018-Jun-12 23:37N 31°04' E 122°42'0 0.2
2018-Jun-12 22:52N 31°04' E 122°42'0 0.0
2018-Jun-12 22:25N 31°03' E 122°42'0 0.0
2018-Jun-12 21:55N 31°03' E 122°42'0 0.1
2018-Jun-12 21:13N 31°03' E 122°42'0 0.1
2018-Jun-12 20:37N 31°04' E 122°42'0 0.0
2018-Jun-12 20:25N 31°04' E 122°42'0 0.0
2018-Jun-12 19:13N 31°04' E 122°42'0 0.0
2018-Jun-12 18:58N 31°04' E 122°42'0 0.0
2018-Jun-12 18:22N 31°04' E 122°42'0 0.0
2018-Jun-12 17:58N 31°04' E 122°42'0 0.0
2018-Jun-12 17:04N 31°04' E 122°42'0 0.1
2018-Jun-12 16:13N 31°04' E 122°42'0 0.0
2018-Jun-12 15:55N 31°04' E 122°42'0 0.1
2018-Jun-12 15:28N 31°04' E 122°42'0 0.0
2018-Jun-12 14:49N 31°04' E 122°42'0 0.1
2018-Jun-12 14:07N 31°04' E 122°42'0 0.3
2018-Jun-12 13:47N 31°04' E 122°42'1 3.7
2018-Jun-12 13:29N 31°05' E 122°43'611.9
2018-Jun-12 13:00N 31°05' E 122°49'712.9
2018-Jun-12 12:28N 31°07' E 122°57'714.4
2018-Jun-12 12:00N 31°06' E 123°05'714.5
2018-Jun-12 11:30N 31°06' E 123°13'714.6
2018-Jun-12 11:00N 31°06' E 123°22'  
2018-Jun-09 18:28N 35°08' E 139°44'714.6
2018-Jun-09 17:58N 35°16' E 139°46'612.9
2018-Jun-09 17:30N 35°21' E 139°42'611.5
2018-Jun-09 17:00N 35°26' E 139°42'1 1.6
2018-Jun-09 16:26N 35°27' E 139°41'0 0.0
2018-Jun-09 15:56N 35°27' E 139°41'0 0.0
2018-Jun-09 15:29N 35°27' E 139°41'0 0.0
2018-Jun-09 14:29N 35°27' E 139°41'0 0.0
2018-Jun-09 13:59N 35°27' E 139°41'0 0.1
2018-Jun-09 13:29N 35°27' E 139°41'0 0.1
2018-Jun-09 12:59N 35°27' E 139°41'0 0.0
2018-Jun-09 12:29N 35°27' E 139°41'0 0.0
2018-Jun-09 12:00N 35°27' E 139°41'1 2.6
2018-Jun-09 11:30N 35°26' E 139°42'5 9.7
2018-Jun-09 11:00N 35°28' E 139°48'611.6
2018-Jun-09 10:30N 35°33' E 139°50'3 5.9
2018-Jun-09 10:00N 35°35' E 139°48'0 0.3
2018-Jun-09 09:29N 35°35' E 139°48'0 0.0
2018-Jun-09 08:59N 35°35' E 139°48'0 0.0
2018-Jun-09 08:29N 35°35' E 139°48'0 0.0
2018-Jun-09 07:59N 35°35' E 139°48'0 0.0
2018-Jun-09 07:29N 35°35' E 139°48'0 0.0
2018-Jun-09 06:59N 35°35' E 139°48'0 0.0
2018-Jun-09 06:29N 35°35' E 139°48'0 0.0
2018-Jun-09 05:59N 35°35' E 139°48'0 0.0
2018-Jun-09 05:29N 35°35' E 139°48'0 0.0
2018-Jun-09 04:59N 35°35' E 139°48'0 0.0
2018-Jun-09 04:29N 35°35' E 139°48'0 0.0
2018-Jun-09 03:59N 35°35' E 139°48'0 0.0
2018-Jun-09 03:29N 35°35' E 139°48'0 0.0
2018-Jun-09 02:59N 35°35' E 139°48'0 0.0
2018-Jun-09 02:29N 35°35' E 139°48'0 0.0
2018-Jun-09 01:59N 35°35' E 139°48'0 0.0
2018-Jun-09 01:29N 35°35' E 139°48'0 0.0
2018-Jun-09 00:56N 35°35' E 139°48'0 0.0
2018-Jun-09 00:26N 35°35' E 139°48'0 0.0
2018-Jun-08 23:56N 35°35' E 139°48'0 0.0
2018-Jun-08 23:29N 35°35' E 139°48'0 0.0
2018-Jun-08 22:59N 35°35' E 139°48'0 0.1
2018-Jun-08 22:30N 35°35' E 139°48'3 5.6
2018-Jun-08 22:00N 35°33' E 139°50'5 9.4
2018-Jun-08 21:30N 35°29' E 139°52'612.7
2018-Jun-08 21:00N 35°24' E 139°46'612.0
2018-Jun-08 20:30N 35°18' E 139°44'611.4
2018-Jun-08 20:00N 35°13' E 139°47'510.2
2018-Jun-08 19:30N 35°08' E 139°46'4 8.9
2018-Jun-08 19:00N 35°04' E 139°44'  
Track history (hours):
 
Tides and Currents Weather Stations Pressure Air Temp Water Temp Dewpoint Dewpoint Depression Visibility Wind Speed Wind Dir Waves Ship Positions

CSCL Nagoya

Last reported at 2018-Jun-16 19:02 UTC. Time now 2018-Jun-18 05:39 UTC.
Position N 31°07' E 122°16'.

Length 144 m; draft 8.3 m.

Type: Cargo ship. MMSI: 477136700.

Date/timePositionNaut miles runAvg speedWind from/ knotsBaromVisibWave heightAir tempDewpointWater temp
2018-Jun-16 19:02N 31°07' E 122°16'514.0
2018-Jun-16 18:38N 31°10' E 122°11'314.4
2018-Jun-16 18:28N 31°12' E 122°09'713.4
2018-Jun-16 17:56N 31°15' E 122°01'512.1
2018-Jun-16 17:30N 31°16' E 121°55'611.8
2018-Jun-16 16:58N 31°17' E 121°48'5 0.3
2018-Jun-16 01:45N 31°16' E 121°54'312.3
2018-Jun-16 01:28N 31°15' E 121°58'612.3
2018-Jun-16 01:00N 31°14' E 122°04'812.3
2018-Jun-16 00:22N 31°10' E 122°12'512.1
2018-Jun-15 23:59N 31°07' E 122°16'510.2
2018-Jun-15 23:30N 31°06' E 122°22'18 0.7
2018-Jun-14 22:10N 31°03' E 122°42'0 0.0
2018-Jun-14 21:58N 31°03' E 122°42'0 0.0
2018-Jun-14 21:22N 31°03' E 122°42'0 0.0
2018-Jun-14 18:13N 31°04' E 122°42'0 0.0
2018-Jun-14 17:49N 31°04' E 122°42'0 0.0
2018-Jun-14 17:25N 31°04' E 122°42'0 0.0
2018-Jun-14 16:55N 31°04' E 122°42'0 0.1
2018-Jun-14 16:28N 31°04' E 122°42'0 0.0
2018-Jun-13 20:52N 31°03' E 122°42'0 0.0
2018-Jun-13 20:28N 31°03' E 122°42'0 0.1
2018-Jun-13 19:55N 31°04' E 122°42'0 0.0
2018-Jun-13 19:28N 31°04' E 122°42'0 0.0
2018-Jun-13 09:19N 31°03' E 122°42'0 0.1
2018-Jun-13 08:49N 31°03' E 122°42'0 0.0
2018-Jun-13 06:04N 31°03' E 122°42'0 0.0
2018-Jun-13 02:07N 31°04' E 122°42'0 0.2
2018-Jun-13 01:52N 31°04' E 122°42'0 0.1
2018-Jun-13 01:28N 31°04' E 122°42'0 0.1
2018-Jun-13 00:58N 31°04' E 122°42'0 0.0
2018-Jun-13 00:28N 31°04' E 122°42'0 0.0
2018-Jun-12 23:37N 31°04' E 122°42'0 0.2
2018-Jun-12 22:52N 31°04' E 122°42'0 0.0
2018-Jun-12 22:25N 31°03' E 122°42'0 0.0
2018-Jun-12 21:55N 31°03' E 122°42'0 0.1
2018-Jun-12 21:13N 31°03' E 122°42'0 0.1
2018-Jun-12 20:37N 31°04' E 122°42'0 0.0
2018-Jun-12 20:25N 31°04' E 122°42'0 0.0
2018-Jun-12 19:13N 31°04' E 122°42'0 0.0
2018-Jun-12 18:58N 31°04' E 122°42'0 0.0
2018-Jun-12 18:22N 31°04' E 122°42'0 0.0
2018-Jun-12 17:58N 31°04' E 122°42'0 0.0
2018-Jun-12 17:04N 31°04' E 122°42'0 0.1
2018-Jun-12 16:13N 31°04' E 122°42'0 0.0
2018-Jun-12 15:55N 31°04' E 122°42'0 0.1
2018-Jun-12 15:28N 31°04' E 122°42'0 0.0
2018-Jun-12 14:49N 31°04' E 122°42'0 0.1
2018-Jun-12 14:07N 31°04' E 122°42'0 0.3
2018-Jun-12 13:47N 31°04' E 122°42'1 3.7
2018-Jun-12 13:29N 31°05' E 122°43'611.9
2018-Jun-12 13:00N 31°05' E 122°49'712.9
2018-Jun-12 12:28N 31°07' E 122°57'714.4
2018-Jun-12 12:00N 31°06' E 123°05'714.5
2018-Jun-12 11:30N 31°06' E 123°13'714.6
2018-Jun-12 11:00N 31°06' E 123°22'  
2018-Jun-09 18:28N 35°08' E 139°44'714.6
2018-Jun-09 17:58N 35°16' E 139°46'612.9
2018-Jun-09 17:30N 35°21' E 139°42'611.5
2018-Jun-09 17:00N 35°26' E 139°42'1 1.6
2018-Jun-09 16:26N 35°27' E 139°41'0 0.0
2018-Jun-09 15:56N 35°27' E 139°41'0 0.0
2018-Jun-09 15:29N 35°27' E 139°41'0 0.0
2018-Jun-09 14:29N 35°27' E 139°41'0 0.0
2018-Jun-09 13:59N 35°27' E 139°41'0 0.1
2018-Jun-09 13:29N 35°27' E 139°41'0 0.1
2018-Jun-09 12:59N 35°27' E 139°41'0 0.0
2018-Jun-09 12:29N 35°27' E 139°41'0 0.0
2018-Jun-09 12:00N 35°27' E 139°41'1 2.6
2018-Jun-09 11:30N 35°26' E 139°42'5 9.7
2018-Jun-09 11:00N 35°28' E 139°48'611.6
2018-Jun-09 10:30N 35°33' E 139°50'3 5.9
2018-Jun-09 10:00N 35°35' E 139°48'0 0.3
2018-Jun-09 09:29N 35°35' E 139°48'0 0.0
2018-Jun-09 08:59N 35°35' E 139°48'0 0.0
2018-Jun-09 08:29N 35°35' E 139°48'0 0.0
2018-Jun-09 07:59N 35°35' E 139°48'0 0.0
2018-Jun-09 07:29N 35°35' E 139°48'0 0.0
2018-Jun-09 06:59N 35°35' E 139°48'0 0.0
2018-Jun-09 06:29N 35°35' E 139°48'0 0.0
2018-Jun-09 05:59N 35°35' E 139°48'0 0.0
2018-Jun-09 05:29N 35°35' E 139°48'0 0.0
2018-Jun-09 04:59N 35°35' E 139°48'0 0.0
2018-Jun-09 04:29N 35°35' E 139°48'0 0.0
2018-Jun-09 03:59N 35°35' E 139°48'0 0.0
2018-Jun-09 03:29N 35°35' E 139°48'0 0.0
2018-Jun-09 02:59N 35°35' E 139°48'0 0.0
2018-Jun-09 02:29N 35°35' E 139°48'0 0.0
2018-Jun-09 01:59N 35°35' E 139°48'0 0.0
2018-Jun-09 01:29N 35°35' E 139°48'0 0.0
2018-Jun-09 00:56N 35°35' E 139°48'0 0.0
2018-Jun-09 00:26N 35°35' E 139°48'0 0.0
2018-Jun-08 23:56N 35°35' E 139°48'0 0.0
2018-Jun-08 23:29N 35°35' E 139°48'0 0.0
2018-Jun-08 22:59N 35°35' E 139°48'0 0.1
2018-Jun-08 22:30N 35°35' E 139°48'3 5.6
2018-Jun-08 22:00N 35°33' E 139°50'5 9.4
2018-Jun-08 21:30N 35°29' E 139°52'612.7
2018-Jun-08 21:00N 35°24' E 139°46'612.0
2018-Jun-08 20:30N 35°18' E 139°44'611.4
2018-Jun-08 20:00N 35°13' E 139°47'510.2
2018-Jun-08 19:30N 35°08' E 139°46'4 8.9
2018-Jun-08 19:00N 35°04' E 139°44'  

Dump ship's entire track history